Webcam Flughafen St.Gallen-Altenrhein

Live-Bilder und Zeitraffer LSZR / ACH.

 

Live aus Altenrhein
LIVE
LSZR 261320Z 30007KT 9999 FEW060 06/M04 Q1029 NOSIG RMK I
Zeitraffer heute
2019-03-26 00:14:02
LSZR 252250Z AUTO VRB01KT 9999 FEW039 BKN050 OVC070 03/M00 Q1025
Zeitraffer gestern
2019-03-25 00:13:50
LSZR 242250Z AUTO VRB01KT 6000 FEW060 08/05 Q1022
Zeitraffer vor 3 Tagen
2019-03-23 00:14:04
LSZR 222250Z AUTO VRB02KT CAVOK 03/01 Q1028